This is the latest recevied weather packets stored in our database for station/object CT2IRJ-11. If no packets are shown the sender has not sent any weather packets the latest 10 day(s).
| Time | Temp. | Humidity | Pressure | Rain* | Wind** | Luminosity | Snow |
|---|---|---|---|---|---|---|---|
| 1777567409 | 20° C | 62% | 1016.6 hPa | 0 mm | - | 66 W/m² | - |
| 1777567110 | 20.56° C | 61% | 1016.6 hPa | 0 mm | - | 67 W/m² | - |
| 1777566809 | 20.56° C | 62% | 1016.6 hPa | 0 mm | - | 88 W/m² | - |
| 1777566510 | 20.56° C | 62% | 1016.6 hPa | 0 mm | - | 85 W/m² | - |
| 1777566210 | 20° C | 63% | 1016.6 hPa | 0 mm | - | 82 W/m² | - |
| 1777565910 | 20.56° C | 61% | 1016.6 hPa | 0 mm | - | 93 W/m² | - |
| 1777565610 | 20.56° C | 61% | 1016.6 hPa | 0 mm | - | 102 W/m² | - |
| 1777565311 | 20.56° C | 60% | 1016.6 hPa | 0 mm | - | 98 W/m² | - |
| 1777565010 | 21.11° C | 60% | 1016.6 hPa | 0 mm | - | 108 W/m² | - |
| 1777564710 | 21.11° C | 59% | 1016.6 hPa | 0 mm | - | 123 W/m² | - |
| 1777564409 | 21.11° C | 59% | 1016.6 hPa | 0 mm | - | 133 W/m² | - |
| 1777564110 | 22.22° C | 58% | 1016.6 hPa | 0 mm | - | 151 W/m² | - |
| 1777563810 | 21.67° C | 56% | 1016.6 hPa | 0 mm | - | 181 W/m² | - |
| 1777563511 | 21.67° C | 56% | 1016.6 hPa | 0 mm | - | 221 W/m² | - |
| 1777563211 | 21.67° C | 58% | 1016.6 hPa | 0 mm | - | 263 W/m² | - |
| 1777562910 | 21.67° C | 56% | 1016.6 hPa | 0 mm | - | 252 W/m² | - |
| 1777562610 | 21.67° C | 57% | 1016.6 hPa | 0 mm | - | 219 W/m² | - |
| 1777562310 | 22.22° C | 54% | 1016.6 hPa | 0 mm | - | 266 W/m² | - |
| 1777562009 | 21.67° C | 56% | 1016.9 hPa | 0 mm | - | 387 W/m² | - |
| 1777561711 | 20.56° C | 58% | 1016.6 hPa | 0 mm | - | 266 W/m² | - |
| 1777561414 | 21.11° C | 57% | 1016.9 hPa | 0 mm | - | 252 W/m² | - |
| 1777561110 | 22.22° C | 56% | 1016.6 hPa | 0 mm | - | 258 W/m² | - |
| 1777560810 | 22.78° C | 55% | 1016.9 hPa | 0 mm | - | 219 W/m² | - |
| 1777560510 | 22.78° C | 53% | 1016.9 hPa | 0 mm | - | 332 W/m² | - |
| 1777560210 | 22.78° C | 54% | 1017.3 hPa | 0 mm | - | 369 W/m² | - |
* Rain latest hour (hover to see other rain measurements)
** Current wind speed in m/s (hover to see current wind gust speed)